sensor_id;sensor_type;location;lat;lon;timestamp;temperature;humidity
32217;DHT22;67098;51.140;4.088;2023-02-28T00:00:07;4.90;71.10
32217;DHT22;67098;51.140;4.088;2023-02-28T00:02:38;4.80;71.10
32217;DHT22;67098;51.140;4.088;2023-02-28T00:05:05;4.80;71.20
32217;DHT22;67098;51.140;4.088;2023-02-28T00:07:31;4.80;71.10
32217;DHT22;67098;51.140;4.088;2023-02-28T00:09:57;4.50;72.00
32217;DHT22;67098;51.140;4.088;2023-02-28T00:12:23;4.30;72.60
32217;DHT22;67098;51.140;4.088;2023-02-28T00:14:49;4.40;72.20
32217;DHT22;67098;51.140;4.088;2023-02-28T00:17:15;4.50;71.70
32217;DHT22;67098;51.140;4.088;2023-02-28T00:19:43;4.50;71.40
32217;DHT22;67098;51.140;4.088;2023-02-28T00:22:08;4.50;71.50
32217;DHT22;67098;51.140;4.088;2023-02-28T00:24:34;4.30;72.00
32217;DHT22;67098;51.140;4.088;2023-02-28T00:27:00;4.40;72.10
32217;DHT22;67098;51.140;4.088;2023-02-28T00:29:25;4.50;71.90
32217;DHT22;67098;51.140;4.088;2023-02-28T00:31:51;4.50;71.70
32217;DHT22;67098;51.140;4.088;2023-02-28T00:34:17;4.40;72.20
32217;DHT22;67098;51.140;4.088;2023-02-28T00:36:42;4.40;72.00
32217;DHT22;67098;51.140;4.088;2023-02-28T00:39:11;4.40;72.00
32217;DHT22;67098;51.140;4.088;2023-02-28T00:41:37;4.40;72.00
32217;DHT22;67098;51.140;4.088;2023-02-28T00:44:02;4.50;71.90
32217;DHT22;67098;51.140;4.088;2023-02-28T00:46:28;4.40;71.80
32217;DHT22;67098;51.140;4.088;2023-02-28T00:48:54;4.40;72.00
32217;DHT22;67098;51.140;4.088;2023-02-28T00:51:19;4.30;72.20
32217;DHT22;67098;51.140;4.088;2023-02-28T00:53:45;4.30;72.40
32217;DHT22;67098;51.140;4.088;2023-02-28T00:56:10;4.30;72.50
32217;DHT22;67098;51.140;4.088;2023-02-28T00:58:36;4.20;72.70
32217;DHT22;67098;51.140;4.088;2023-02-28T01:01:02;4.10;72.90
32217;DHT22;67098;51.140;4.088;2023-02-28T01:03:27;4.10;73.10
32217;DHT22;67098;51.140;4.088;2023-02-28T01:05:53;4.10;73.20
32217;DHT22;67098;51.140;4.088;2023-02-28T01:08:19;4.10;73.20
32217;DHT22;67098;51.140;4.088;2023-02-28T01:10:45;4.10;72.90
32217;DHT22;67098;51.140;4.088;2023-02-28T01:13:11;4.10;73.00
32217;DHT22;67098;51.140;4.088;2023-02-28T01:15:39;4.00;73.10
32217;DHT22;67098;51.140;4.088;2023-02-28T01:18:06;4.00;73.10
32217;DHT22;67098;51.140;4.088;2023-02-28T01:20:31;4.00;73.00
32217;DHT22;67098;51.140;4.088;2023-02-28T01:22:57;4.00;73.10
32217;DHT22;67098;51.140;4.088;2023-02-28T01:25:22;4.00;72.80
32217;DHT22;67098;51.140;4.088;2023-02-28T01:27:48;3.90;73.00
32217;DHT22;67098;51.140;4.088;2023-02-28T01:30:14;3.90;72.70
32217;DHT22;67098;51.140;4.088;2023-02-28T01:32:40;3.80;73.00
32217;DHT22;67098;51.140;4.088;2023-02-28T01:35:05;3.90;73.00
32217;DHT22;67098;51.140;4.088;2023-02-28T01:37:31;3.80;73.00
32217;DHT22;67098;51.140;4.088;2023-02-28T01:39:56;3.80;73.10
32217;DHT22;67098;51.140;4.088;2023-02-28T01:42:22;3.80;73.00
32217;DHT22;67098;51.140;4.088;2023-02-28T01:47:54;3.80;73.10
32217;DHT22;67098;51.140;4.088;2023-02-28T01:50:25;3.70;73.30
32217;DHT22;67098;51.140;4.088;2023-02-28T01:52:54;3.70;73.40
32217;DHT22;67098;51.140;4.088;2023-02-28T01:55:23;3.70;73.60
32217;DHT22;67098;51.140;4.088;2023-02-28T01:57:57;3.60;73.60
32217;DHT22;67098;51.140;4.088;2023-02-28T02:00:25;3.60;73.80
32217;DHT22;67098;51.140;4.088;2023-02-28T02:02:55;3.60;73.80
32217;DHT22;67098;51.140;4.088;2023-02-28T02:05:24;3.50;74.00
32217;DHT22;67098;51.140;4.088;2023-02-28T02:07:54;3.50;74.00
32217;DHT22;67098;51.140;4.088;2023-02-28T02:10:25;3.50;74.00
32217;DHT22;67098;51.140;4.088;2023-02-28T02:15:57;3.60;73.70
32217;DHT22;67098;51.140;4.088;2023-02-28T02:18:46;3.60;73.50
32217;DHT22;67098;51.140;4.088;2023-02-28T02:32:45;3.40;74.60
32217;DHT22;67098;51.140;4.088;2023-02-28T02:37:59;3.40;74.60
32217;DHT22;67098;51.140;4.088;2023-02-28T02:40:41;3.30;74.70
32217;DHT22;67098;51.140;4.088;2023-02-28T02:43:35;3.30;74.70
32217;DHT22;67098;51.140;4.088;2023-02-28T02:46:24;3.30;74.60
32217;DHT22;67098;51.140;4.088;2023-02-28T02:48:54;3.30;74.60
32217;DHT22;67098;51.140;4.088;2023-02-28T02:51:23;3.30;74.30
32217;DHT22;67098;51.140;4.088;2023-02-28T02:53:57;3.20;74.50
32217;DHT22;67098;51.140;4.088;2023-02-28T02:56:28;3.20;74.70
32217;DHT22;67098;51.140;4.088;2023-02-28T02:59:01;3.00;75.00
32217;DHT22;67098;51.140;4.088;2023-02-28T03:01:29;3.00;74.60
32217;DHT22;67098;51.140;4.088;2023-02-28T03:04:02;3.10;74.50
32217;DHT22;67098;51.140;4.088;2023-02-28T03:06:28;3.20;74.50
32217;DHT22;67098;51.140;4.088;2023-02-28T03:08:54;3.20;74.50
32217;DHT22;67098;51.140;4.088;2023-02-28T03:11:19;3.20;74.80
32217;DHT22;67098;51.140;4.088;2023-02-28T03:19:28;3.00;75.20
32217;DHT22;67098;51.140;4.088;2023-02-28T03:27:03;2.80;76.00
32217;DHT22;67098;51.140;4.088;2023-02-28T03:29:35;2.90;75.80
32217;DHT22;67098;51.140;4.088;2023-02-28T03:32:21;3.00;75.60
32217;DHT22;67098;51.140;4.088;2023-02-28T03:34:59;2.80;76.20
32217;DHT22;67098;51.140;4.088;2023-02-28T03:37:30;2.90;76.20
32217;DHT22;67098;51.140;4.088;2023-02-28T03:40:08;3.10;75.80
32217;DHT22;67098;51.140;4.088;2023-02-28T03:42:38;3.20;75.90
32217;DHT22;67098;51.140;4.088;2023-02-28T03:45:18;3.20;75.70
32217;DHT22;67098;51.140;4.088;2023-02-28T03:48:07;3.40;75.50
32217;DHT22;67098;51.140;4.088;2023-02-28T03:50:40;3.50;76.20
32217;DHT22;67098;51.140;4.088;2023-02-28T03:53:15;3.50;75.70
32217;DHT22;67098;51.140;4.088;2023-02-28T03:55:45;3.60;75.70
32217;DHT22;67098;51.140;4.088;2023-02-28T03:58:19;3.60;75.80
32217;DHT22;67098;51.140;4.088;2023-02-28T04:00:50;3.70;76.00
32217;DHT22;67098;51.140;4.088;2023-02-28T04:03:18;3.70;76.20
32217;DHT22;67098;51.140;4.088;2023-02-28T04:05:51;3.80;76.30
32217;DHT22;67098;51.140;4.088;2023-02-28T04:08:17;3.80;76.30
32217;DHT22;67098;51.140;4.088;2023-02-28T04:10:46;3.90;76.20
32217;DHT22;67098;51.140;4.088;2023-02-28T04:13:12;3.90;76.40
32217;DHT22;67098;51.140;4.088;2023-02-28T04:15:38;3.90;76.40
32217;DHT22;67098;51.140;4.088;2023-02-28T04:18:03;3.90;76.60
32217;DHT22;67098;51.140;4.088;2023-02-28T04:20:29;4.00;76.80
32217;DHT22;67098;51.140;4.088;2023-02-28T04:22:55;4.00;77.00
32217;DHT22;67098;51.140;4.088;2023-02-28T04:25:20;4.00;77.50
32217;DHT22;67098;51.140;4.088;2023-02-28T04:27:46;4.00;77.60
32217;DHT22;67098;51.140;4.088;2023-02-28T04:30:12;4.10;77.70
32217;DHT22;67098;51.140;4.088;2023-02-28T04:32:37;4.10;77.90
32217;DHT22;67098;51.140;4.088;2023-02-28T04:35:04;4.20;77.90
32217;DHT22;67098;51.140;4.088;2023-02-28T04:37:29;4.20;78.00
32217;DHT22;67098;51.140;4.088;2023-02-28T04:39:55;4.30;78.00
32217;DHT22;67098;51.140;4.088;2023-02-28T04:42:21;4.30;78.20
32217;DHT22;67098;51.140;4.088;2023-02-28T04:44:46;4.30;78.20
32217;DHT22;67098;51.140;4.088;2023-02-28T04:47:12;4.30;78.30
32217;DHT22;67098;51.140;4.088;2023-02-28T04:49:38;4.30;78.40
32217;DHT22;67098;51.140;4.088;2023-02-28T04:52:04;4.40;78.50
32217;DHT22;67098;51.140;4.088;2023-02-28T04:54:30;4.40;78.60
32217;DHT22;67098;51.140;4.088;2023-02-28T04:56:56;4.40;78.60
32217;DHT22;67098;51.140;4.088;2023-02-28T04:59:21;4.40;78.90
32217;DHT22;67098;51.140;4.088;2023-02-28T05:01:48;4.40;78.90
32217;DHT22;67098;51.140;4.088;2023-02-28T05:04:14;4.50;78.90
32217;DHT22;67098;51.140;4.088;2023-02-28T05:06:40;4.50;78.80
32217;DHT22;67098;51.140;4.088;2023-02-28T05:09:05;4.50;79.40
32217;DHT22;67098;51.140;4.088;2023-02-28T05:11:33;4.50;78.90
32217;DHT22;67098;51.140;4.088;2023-02-28T05:14:13;4.50;78.90
32217;DHT22;67098;51.140;4.088;2023-02-28T05:16:39;4.50;78.80
32217;DHT22;67098;51.140;4.088;2023-02-28T05:19:04;4.50;79.00
32217;DHT22;67098;51.140;4.088;2023-02-28T05:21:35;4.50;79.20
32217;DHT22;67098;51.140;4.088;2023-02-28T05:24:02;4.60;79.10
32217;DHT22;67098;51.140;4.088;2023-02-28T05:26:29;4.60;79.30
32217;DHT22;67098;51.140;4.088;2023-02-28T05:28:55;4.60;79.40
32217;DHT22;67098;51.140;4.088;2023-02-28T05:31:20;4.60;79.40
32217;DHT22;67098;51.140;4.088;2023-02-28T05:33:46;4.70;79.30
32217;DHT22;67098;51.140;4.088;2023-02-28T05:36:12;4.70;79.60
32217;DHT22;67098;51.140;4.088;2023-02-28T05:38:38;4.70;79.50
32217;DHT22;67098;51.140;4.088;2023-02-28T05:41:10;4.70;79.30
32217;DHT22;67098;51.140;4.088;2023-02-28T05:43:37;4.70;79.40
32217;DHT22;67098;51.140;4.088;2023-02-28T05:46:08;4.70;79.50
32217;DHT22;67098;51.140;4.088;2023-02-28T05:48:34;4.70;79.70
32217;DHT22;67098;51.140;4.088;2023-02-28T05:51:01;4.80;80.00
32217;DHT22;67098;51.140;4.088;2023-02-28T05:53:28;4.70;79.80
32217;DHT22;67098;51.140;4.088;2023-02-28T05:55:53;4.70;80.00
32217;DHT22;67098;51.140;4.088;2023-02-28T05:58:19;4.70;80.10
32217;DHT22;67098;51.140;4.088;2023-02-28T06:00:45;4.70;80.10
32217;DHT22;67098;51.140;4.088;2023-02-28T06:03:11;4.70;80.30
32217;DHT22;67098;51.140;4.088;2023-02-28T06:05:37;4.70;80.50
32217;DHT22;67098;51.140;4.088;2023-02-28T06:08:03;4.70;80.50
32217;DHT22;67098;51.140;4.088;2023-02-28T06:10:31;4.70;80.60
32217;DHT22;67098;51.140;4.088;2023-02-28T06:13:00;4.80;80.80
32217;DHT22;67098;51.140;4.088;2023-02-28T06:15:26;4.80;80.90
32217;DHT22;67098;51.140;4.088;2023-02-28T06:17:52;4.80;80.90
32217;DHT22;67098;51.140;4.088;2023-02-28T06:20:18;4.80;81.20
32217;DHT22;67098;51.140;4.088;2023-02-28T06:22:43;4.80;81.20
32217;DHT22;67098;51.140;4.088;2023-02-28T06:25:10;4.80;81.20
32217;DHT22;67098;51.140;4.088;2023-02-28T06:27:35;4.80;81.50
32217;DHT22;67098;51.140;4.088;2023-02-28T06:30:02;4.80;81.60
32217;DHT22;67098;51.140;4.088;2023-02-28T06:32:28;4.80;81.70
32217;DHT22;67098;51.140;4.088;2023-02-28T06:34:54;4.80;81.80
32217;DHT22;67098;51.140;4.088;2023-02-28T06:37:22;4.80;81.50
32217;DHT22;67098;51.140;4.088;2023-02-28T06:39:51;4.80;81.90
32217;DHT22;67098;51.140;4.088;2023-02-28T06:42:17;4.80;81.70
32217;DHT22;67098;51.140;4.088;2023-02-28T06:44:42;4.80;81.90
32217;DHT22;67098;51.140;4.088;2023-02-28T06:47:08;4.80;82.00
32217;DHT22;67098;51.140;4.088;2023-02-28T06:49:35;4.90;82.10
32217;DHT22;67098;51.140;4.088;2023-02-28T06:52:02;4.90;82.20
32217;DHT22;67098;51.140;4.088;2023-02-28T06:54:27;5.00;82.20
32217;DHT22;67098;51.140;4.088;2023-02-28T06:56:53;5.00;82.00
32217;DHT22;67098;51.140;4.088;2023-02-28T06:59:19;5.00;82.00
32217;DHT22;67098;51.140;4.088;2023-02-28T07:01:45;5.00;81.90
32217;DHT22;67098;51.140;4.088;2023-02-28T07:04:11;5.00;81.70
32217;DHT22;67098;51.140;4.088;2023-02-28T07:06:38;5.10;81.90
32217;DHT22;67098;51.140;4.088;2023-02-28T07:09:04;5.20;81.90
32217;DHT22;67098;51.140;4.088;2023-02-28T07:11:31;5.10;82.20
32217;DHT22;67098;51.140;4.088;2023-02-28T07:13:57;5.20;81.30
32217;DHT22;67098;51.140;4.088;2023-02-28T07:16:24;5.20;81.30
32217;DHT22;67098;51.140;4.088;2023-02-28T07:18:52;5.20;80.70
32217;DHT22;67098;51.140;4.088;2023-02-28T07:21:18;5.20;80.60
32217;DHT22;67098;51.140;4.088;2023-02-28T07:23:43;5.20;80.60
32217;DHT22;67098;51.140;4.088;2023-02-28T07:26:13;5.30;80.30
32217;DHT22;67098;51.140;4.088;2023-02-28T07:28:41;5.30;80.00
32217;DHT22;67098;51.140;4.088;2023-02-28T07:31:08;5.30;79.90
32217;DHT22;67098;51.140;4.088;2023-02-28T07:33:34;5.40;79.90
32217;DHT22;67098;51.140;4.088;2023-02-28T07:36:11;5.40;79.80
32217;DHT22;67098;51.140;4.088;2023-02-28T07:38:41;5.40;79.60
32217;DHT22;67098;51.140;4.088;2023-02-28T07:41:07;5.50;79.80
32217;DHT22;67098;51.140;4.088;2023-02-28T07:43:33;5.50;79.70
32217;DHT22;67098;51.140;4.088;2023-02-28T07:46:11;5.50;79.70
32217;DHT22;67098;51.140;4.088;2023-02-28T07:48:37;5.60;79.90
32217;DHT22;67098;51.140;4.088;2023-02-28T07:51:03;5.60;79.60
32217;DHT22;67098;51.140;4.088;2023-02-28T07:53:29;5.60;79.50
32217;DHT22;67098;51.140;4.088;2023-02-28T07:55:56;5.60;79.40
32217;DHT22;67098;51.140;4.088;2023-02-28T07:58:23;5.60;79.70
32217;DHT22;67098;51.140;4.088;2023-02-28T08:00:49;5.70;79.40
32217;DHT22;67098;51.140;4.088;2023-02-28T08:03:15;5.70;79.10
32217;DHT22;67098;51.140;4.088;2023-02-28T08:05:41;5.80;79.00
32217;DHT22;67098;51.140;4.088;2023-02-28T08:08:07;5.80;78.70
32217;DHT22;67098;51.140;4.088;2023-02-28T08:10:34;5.80;78.00
32217;DHT22;67098;51.140;4.088;2023-02-28T08:12:59;5.80;77.40
32217;DHT22;67098;51.140;4.088;2023-02-28T08:15:25;5.90;77.30
32217;DHT22;67098;51.140;4.088;2023-02-28T08:17:51;5.90;76.40
32217;DHT22;67098;51.140;4.088;2023-02-28T08:20:16;5.80;75.40
32217;DHT22;67098;51.140;4.088;2023-02-28T08:22:42;5.80;75.20
32217;DHT22;67098;51.140;4.088;2023-02-28T08:25:08;5.90;75.30
32217;DHT22;67098;51.140;4.088;2023-02-28T08:27:34;6.00;74.60
32217;DHT22;67098;51.140;4.088;2023-02-28T08:30:00;6.10;74.00
32217;DHT22;67098;51.140;4.088;2023-02-28T08:32:25;6.10;72.90
32217;DHT22;67098;51.140;4.088;2023-02-28T08:34:51;6.10;72.90
32217;DHT22;67098;51.140;4.088;2023-02-28T08:37:17;6.30;72.40
32217;DHT22;67098;51.140;4.088;2023-02-28T08:39:42;6.30;72.00
32217;DHT22;67098;51.140;4.088;2023-02-28T08:42:08;6.40;71.80
32217;DHT22;67098;51.140;4.088;2023-02-28T08:44:34;6.40;71.20
32217;DHT22;67098;51.140;4.088;2023-02-28T08:46:59;6.40;70.40
32217;DHT22;67098;51.140;4.088;2023-02-28T08:49:25;6.40;70.10
32217;DHT22;67098;51.140;4.088;2023-02-28T08:51:50;6.30;69.20
32217;DHT22;67098;51.140;4.088;2023-02-28T08:54:16;6.20;68.50
32217;DHT22;67098;51.140;4.088;2023-02-28T08:56:45;6.20;68.10
32217;DHT22;67098;51.140;4.088;2023-02-28T08:59:14;6.20;67.10
32217;DHT22;67098;51.140;4.088;2023-02-28T09:01:40;6.20;67.80
32217;DHT22;67098;51.140;4.088;2023-02-28T09:04:07;6.20;67.90
32217;DHT22;67098;51.140;4.088;2023-02-28T09:06:35;6.20;67.40
32217;DHT22;67098;51.140;4.088;2023-02-28T09:09:00;6.20;66.80
32217;DHT22;67098;51.140;4.088;2023-02-28T09:11:27;6.30;66.40
32217;DHT22;67098;51.140;4.088;2023-02-28T09:13:53;6.30;66.10
32217;DHT22;67098;51.140;4.088;2023-02-28T09:16:19;6.50;65.50
32217;DHT22;67098;51.140;4.088;2023-02-28T09:18:45;6.70;64.90
32217;DHT22;67098;51.140;4.088;2023-02-28T09:21:13;6.70;62.90
32217;DHT22;67098;51.140;4.088;2023-02-28T09:23:40;6.70;62.90
32217;DHT22;67098;51.140;4.088;2023-02-28T09:26:06;6.80;62.40
32217;DHT22;67098;51.140;4.088;2023-02-28T09:28:32;6.90;62.40
32217;DHT22;67098;51.140;4.088;2023-02-28T09:30:58;6.90;61.20
32217;DHT22;67098;51.140;4.088;2023-02-28T09:33:24;7.00;61.60
32217;DHT22;67098;51.140;4.088;2023-02-28T09:35:56;6.90;59.00
32217;DHT22;67098;51.140;4.088;2023-02-28T09:38:22;7.00;58.70
32217;DHT22;67098;51.140;4.088;2023-02-28T09:40:53;6.90;57.80
32217;DHT22;67098;51.140;4.088;2023-02-28T09:43:22;7.00;57.20
32217;DHT22;67098;51.140;4.088;2023-02-28T09:45:56;7.20;57.70
32217;DHT22;67098;51.140;4.088;2023-02-28T09:48:32;7.20;56.20
32217;DHT22;67098;51.140;4.088;2023-02-28T09:51:30;7.20;55.70
32217;DHT22;67098;51.140;4.088;2023-02-28T09:53:58;7.20;55.20
32217;DHT22;67098;51.140;4.088;2023-02-28T09:56:30;7.10;56.00
32217;DHT22;67098;51.140;4.088;2023-02-28T09:59:18;7.10;55.80
32217;DHT22;67098;51.140;4.088;2023-02-28T10:02:04;7.10;55.50
32217;DHT22;67098;51.140;4.088;2023-02-28T10:04:51;7.00;55.70
32217;DHT22;67098;51.140;4.088;2023-02-28T10:09:59;7.40;56.20
32217;DHT22;67098;51.140;4.088;2023-02-28T10:12:29;7.40;56.30
32217;DHT22;67098;51.140;4.088;2023-02-28T10:14:58;7.60;56.50
32217;DHT22;67098;51.140;4.088;2023-02-28T10:17:27;7.60;56.50
32217;DHT22;67098;51.140;4.088;2023-02-28T10:25:27;7.90;57.00
32217;DHT22;67098;51.140;4.088;2023-02-28T10:28:01;8.10;56.40
32217;DHT22;67098;51.140;4.088;2023-02-28T10:30:27;8.20;55.30
32217;DHT22;67098;51.140;4.088;2023-02-28T10:32:53;8.40;55.10
32217;DHT22;67098;51.140;4.088;2023-02-28T10:35:22;8.40;55.30
32217;DHT22;67098;51.140;4.088;2023-02-28T10:37:51;8.50;55.70
32217;DHT22;67098;51.140;4.088;2023-02-28T10:43:01;8.70;55.60
32217;DHT22;67098;51.140;4.088;2023-02-28T10:45:32;9.00;55.10
32217;DHT22;67098;51.140;4.088;2023-02-28T10:56:06;9.60;54.00
32217;DHT22;67098;51.140;4.088;2023-02-28T11:01:26;9.90;52.10
32217;DHT22;67098;51.140;4.088;2023-02-28T11:03:59;10.00;50.80
32217;DHT22;67098;51.140;4.088;2023-02-28T11:06:26;9.60;50.30
32217;DHT22;67098;51.140;4.088;2023-02-28T11:11:46;9.50;51.50
32217;DHT22;67098;51.140;4.088;2023-02-28T11:14:26;9.70;50.60
32217;DHT22;67098;51.140;4.088;2023-02-28T11:16:54;9.70;50.70
32217;DHT22;67098;51.140;4.088;2023-02-28T11:19:40;9.70;50.90
32217;DHT22;67098;51.140;4.088;2023-02-28T11:22:09;10.00;50.30
32217;DHT22;67098;51.140;4.088;2023-02-28T11:24:44;10.20;49.50
32217;DHT22;67098;51.140;4.088;2023-02-28T11:29:56;10.40;48.40
32217;DHT22;67098;51.140;4.088;2023-02-28T11:32:27;10.60;48.10
32217;DHT22;67098;51.140;4.088;2023-02-28T11:37:35;10.60;46.10
32217;DHT22;67098;51.140;4.088;2023-02-28T11:40:02;10.50;45.40
32217;DHT22;67098;51.140;4.088;2023-02-28T11:48:18;11.00;44.90
32217;DHT22;67098;51.140;4.088;2023-02-28T11:51:24;11.40;43.90
32217;DHT22;67098;51.140;4.088;2023-02-28T11:54:20;11.70;43.30
32217;DHT22;67098;51.140;4.088;2023-02-28T11:57:00;11.90;43.10
32217;DHT22;67098;51.140;4.088;2023-02-28T11:59:51;12.40;42.30
32217;DHT22;67098;51.140;4.088;2023-02-28T12:02:26;12.70;42.10
32217;DHT22;67098;51.140;4.088;2023-02-28T12:07:39;13.50;40.80
32217;DHT22;67098;51.140;4.088;2023-02-28T12:10:25;13.80;40.20
32217;DHT22;67098;51.140;4.088;2023-02-28T12:13:09;13.80;38.20
32217;DHT22;67098;51.140;4.088;2023-02-28T12:18:38;13.20;38.20
32217;DHT22;67098;51.140;4.088;2023-02-28T12:29:24;13.40;37.40
32217;DHT22;67098;51.140;4.088;2023-02-28T12:31:53;13.00;38.10
32217;DHT22;67098;51.140;4.088;2023-02-28T12:34:30;13.10;37.60
32217;DHT22;67098;51.140;4.088;2023-02-28T12:36:58;13.10;38.60
32217;DHT22;67098;51.140;4.088;2023-02-28T12:39:29;13.60;38.50
32217;DHT22;67098;51.140;4.088;2023-02-28T12:42:07;14.00;37.70
32217;DHT22;67098;51.140;4.088;2023-02-28T12:44:42;14.40;37.40
32217;DHT22;67098;51.140;4.088;2023-02-28T12:47:14;14.70;37.00
32217;DHT22;67098;51.140;4.088;2023-02-28T12:49:49;14.80;36.90
32217;DHT22;67098;51.140;4.088;2023-02-28T12:52:19;15.20;36.60
32217;DHT22;67098;51.140;4.088;2023-02-28T12:54:56;14.90;36.30
32217;DHT22;67098;51.140;4.088;2023-02-28T12:57:41;15.30;36.30
32217;DHT22;67098;51.140;4.088;2023-02-28T13:00:15;15.20;35.70
32217;DHT22;67098;51.140;4.088;2023-02-28T13:06:08;14.90;35.80
32217;DHT22;67098;51.140;4.088;2023-02-28T13:11:49;15.10;35.90
32217;DHT22;67098;51.140;4.088;2023-02-28T13:14:22;15.00;35.00
32217;DHT22;67098;51.140;4.088;2023-02-28T13:16:58;14.70;36.30
32217;DHT22;67098;51.140;4.088;2023-02-28T13:19:30;14.70;36.40
32217;DHT22;67098;51.140;4.088;2023-02-28T13:21:58;14.80;35.70
32217;DHT22;67098;51.140;4.088;2023-02-28T13:24:47;15.20;35.00
32217;DHT22;67098;51.140;4.088;2023-02-28T13:29:43;15.50;35.60
32217;DHT22;67098;51.140;4.088;2023-02-28T13:34:40;15.30;35.50
32217;DHT22;67098;51.140;4.088;2023-02-28T13:43:09;15.70;35.20
32217;DHT22;67098;51.140;4.088;2023-02-28T13:47:44;15.70;35.60
32217;DHT22;67098;51.140;4.088;2023-02-28T13:59:03;16.50;34.60
32217;DHT22;67098;51.140;4.088;2023-02-28T14:02:17;16.10;34.40
32217;DHT22;67098;51.140;4.088;2023-02-28T14:04:56;16.00;34.50
32217;DHT22;67098;51.140;4.088;2023-02-28T14:07:26;16.10;34.70
32217;DHT22;67098;51.140;4.088;2023-02-28T14:10:05;15.90;34.70
32217;DHT22;67098;51.140;4.088;2023-02-28T14:17:56;16.10;34.20
32217;DHT22;67098;51.140;4.088;2023-02-28T14:20:26;15.70;34.20
32217;DHT22;67098;51.140;4.088;2023-02-28T14:31:34;15.30;35.70
32217;DHT22;67098;51.140;4.088;2023-02-28T14:36:33;15.60;35.50
32217;DHT22;67098;51.140;4.088;2023-02-28T14:39:14;15.60;35.50
32217;DHT22;67098;51.140;4.088;2023-02-28T14:41:42;15.80;35.20
32217;DHT22;67098;51.140;4.088;2023-02-28T14:46:44;15.80;34.60
32217;DHT22;67098;51.140;4.088;2023-02-28T14:51:42;15.40;35.20
32217;DHT22;67098;51.140;4.088;2023-02-28T14:54:14;15.50;36.30
32217;DHT22;67098;51.140;4.088;2023-02-28T14:56:41;15.50;35.70
32217;DHT22;67098;51.140;4.088;2023-02-28T14:59:27;15.30;35.20
32217;DHT22;67098;51.140;4.088;2023-02-28T15:02:14;14.90;35.30
32217;DHT22;67098;51.140;4.088;2023-02-28T15:04:40;14.90;35.50
32217;DHT22;67098;51.140;4.088;2023-02-28T15:07:17;14.80;35.90
32217;DHT22;67098;51.140;4.088;2023-02-28T15:09:43;14.80;36.20
32217;DHT22;67098;51.140;4.088;2023-02-28T15:12:14;14.60;36.40
32217;DHT22;67098;51.140;4.088;2023-02-28T15:14:42;14.40;36.90
32217;DHT22;67098;51.140;4.088;2023-02-28T15:17:16;14.50;37.10
32217;DHT22;67098;51.140;4.088;2023-02-28T15:19:52;14.50;36.10
32217;DHT22;67098;51.140;4.088;2023-02-28T15:22:23;14.60;36.30
32217;DHT22;67098;51.140;4.088;2023-02-28T15:24:54;14.60;36.50
32217;DHT22;67098;51.140;4.088;2023-02-28T15:27:25;14.60;36.60
32217;DHT22;67098;51.140;4.088;2023-02-28T15:29:56;14.40;37.00
32217;DHT22;67098;51.140;4.088;2023-02-28T15:32:35;14.00;37.80
32217;DHT22;67098;51.140;4.088;2023-02-28T15:40:58;13.30;37.90
32217;DHT22;67098;51.140;4.088;2023-02-28T15:43:35;13.10;38.50
32217;DHT22;67098;51.140;4.088;2023-02-28T15:46:04;13.10;38.60
32217;DHT22;67098;51.140;4.088;2023-02-28T15:48:33;12.90;38.90
32217;DHT22;67098;51.140;4.088;2023-02-28T15:51:09;12.80;39.30
32217;DHT22;67098;51.140;4.088;2023-02-28T15:53:45;12.90;39.50
32217;DHT22;67098;51.140;4.088;2023-02-28T15:56:42;12.60;39.50
32217;DHT22;67098;51.140;4.088;2023-02-28T15:59:16;12.20;39.60
32217;DHT22;67098;51.140;4.088;2023-02-28T16:01:42;12.00;40.60
32217;DHT22;67098;51.140;4.088;2023-02-28T16:04:17;11.80;40.50
32217;DHT22;67098;51.140;4.088;2023-02-28T16:06:46;11.70;41.00
32217;DHT22;67098;51.140;4.088;2023-02-28T16:09:14;11.60;40.90
32217;DHT22;67098;51.140;4.088;2023-02-28T16:11:51;11.30;40.90
32217;DHT22;67098;51.140;4.088;2023-02-28T16:14:23;10.80;41.30
32217;DHT22;67098;51.140;4.088;2023-02-28T16:16:51;10.70;41.70
32217;DHT22;67098;51.140;4.088;2023-02-28T16:19:18;10.50;42.20
32217;DHT22;67098;51.140;4.088;2023-02-28T16:21:45;10.50;42.50
32217;DHT22;67098;51.140;4.088;2023-02-28T16:24:11;10.30;42.80
32217;DHT22;67098;51.140;4.088;2023-02-28T16:26:38;10.00;43.10
32217;DHT22;67098;51.140;4.088;2023-02-28T16:29:05;9.90;43.80
32217;DHT22;67098;51.140;4.088;2023-02-28T16:31:37;9.80;44.10
32217;DHT22;67098;51.140;4.088;2023-02-28T16:34:03;9.70;44.40
32217;DHT22;67098;51.140;4.088;2023-02-28T16:36:29;9.40;44.80
32217;DHT22;67098;51.140;4.088;2023-02-28T16:38:55;9.10;44.90
32217;DHT22;67098;51.140;4.088;2023-02-28T16:41:24;9.10;45.30
32217;DHT22;67098;51.140;4.088;2023-02-28T16:43:52;9.00;45.50
32217;DHT22;67098;51.140;4.088;2023-02-28T16:46:19;9.00;45.60
32217;DHT22;67098;51.140;4.088;2023-02-28T16:48:45;9.00;46.00
32217;DHT22;67098;51.140;4.088;2023-02-28T16:51:14;9.10;45.70
32217;DHT22;67098;51.140;4.088;2023-02-28T16:53:40;8.90;46.20
32217;DHT22;67098;51.140;4.088;2023-02-28T16:56:10;8.80;46.80
32217;DHT22;67098;51.140;4.088;2023-02-28T16:58:38;8.70;47.20
32217;DHT22;67098;51.140;4.088;2023-02-28T17:01:04;8.50;46.90
32217;DHT22;67098;51.140;4.088;2023-02-28T17:03:30;8.50;47.00
32217;DHT22;67098;51.140;4.088;2023-02-28T17:05:56;8.50;47.20
32217;DHT22;67098;51.140;4.088;2023-02-28T17:08:21;8.50;47.50
32217;DHT22;67098;51.140;4.088;2023-02-28T17:10:47;8.50;47.80
32217;DHT22;67098;51.140;4.088;2023-02-28T17:13:13;8.40;47.90
32217;DHT22;67098;51.140;4.088;2023-02-28T17:15:38;8.40;48.00
32217;DHT22;67098;51.140;4.088;2023-02-28T17:18:06;8.40;48.20
32217;DHT22;67098;51.140;4.088;2023-02-28T17:20:32;8.40;48.30
32217;DHT22;67098;51.140;4.088;2023-02-28T17:22:58;8.30;48.40
32217;DHT22;67098;51.140;4.088;2023-02-28T17:25:24;8.30;48.50
32217;DHT22;67098;51.140;4.088;2023-02-28T17:27:49;8.20;49.00
32217;DHT22;67098;51.140;4.088;2023-02-28T17:30:24;8.20;48.40
32217;DHT22;67098;51.140;4.088;2023-02-28T17:32:53;8.10;48.50
32217;DHT22;67098;51.140;4.088;2023-02-28T17:35:19;8.00;48.40
32217;DHT22;67098;51.140;4.088;2023-02-28T17:37:44;8.00;48.60
32217;DHT22;67098;51.140;4.088;2023-02-28T17:40:18;8.00;48.50
32217;DHT22;67098;51.140;4.088;2023-02-28T17:42:45;7.90;48.80
32217;DHT22;67098;51.140;4.088;2023-02-28T17:45:12;7.90;48.90
32217;DHT22;67098;51.140;4.088;2023-02-28T17:47:38;7.80;49.00
32217;DHT22;67098;51.140;4.088;2023-02-28T17:50:04;7.80;49.30
32217;DHT22;67098;51.140;4.088;2023-02-28T17:52:31;7.80;49.30
32217;DHT22;67098;51.140;4.088;2023-02-28T17:55:02;7.70;49.30
32217;DHT22;67098;51.140;4.088;2023-02-28T17:57:28;7.70;49.50
32217;DHT22;67098;51.140;4.088;2023-02-28T17:59:54;7.60;49.80
32217;DHT22;67098;51.140;4.088;2023-02-28T18:02:19;7.60;50.10
32217;DHT22;67098;51.140;4.088;2023-02-28T18:04:45;7.50;50.00
32217;DHT22;67098;51.140;4.088;2023-02-28T18:07:11;7.40;50.40
32217;DHT22;67098;51.140;4.088;2023-02-28T18:09:37;7.40;50.80
32217;DHT22;67098;51.140;4.088;2023-02-28T18:12:03;7.30;50.80